Time;durP1;ratioP1;P1;durP2;ratioP2;P2;SDS_P1;SDS_P2;PMS_P1;PMS_P2;Temp;Humidity;BMP_temperature;BMP_pressure;BME280_temperature;BME280_humidity;BME280_pressure;Samples;Min_cycle;Max_cycle;Signal;HPM_P1;HPM_P2
2023/12/25 00:00:47;;;;;;;44.47;22.20;;;8.80;99.90;;;;;;6402561;22;19998;-75
2023/12/25 00:03:12;;;;;;;43.43;23.77;;;8.80;99.90;;;;;;6401967;22;20009;-76
2023/12/25 00:05:38;;;;;;;38.37;21.77;;;8.80;99.90;;;;;;6402209;22;20028;-70
2023/12/25 00:08:04;;;;;;;44.50;21.53;;;8.70;99.90;;;;;;6402190;22;20023;-74
2023/12/25 00:10:30;;;;;;;38.07;21.87;;;8.80;99.90;;;;;;6402421;22;19998;-71
2023/12/25 00:12:56;;;;;;;35.03;19.97;;;8.80;99.90;;;;;;6402797;22;20050;-71
2023/12/25 00:15:21;;;;;;;36.57;19.43;;;8.80;99.90;;;;;;6402536;22;20073;-70
2023/12/25 00:17:47;;;;;;;41.53;19.73;;;8.70;99.90;;;;;;6402312;22;19998;-72
2023/12/25 00:20:13;;;;;;;40.57;21.27;;;8.70;99.90;;;;;;6402381;22;20059;-74
2023/12/25 00:22:39;;;;;;;38.77;19.47;;;8.70;99.90;;;;;;6402689;22;20002;-70
2023/12/25 00:25:05;;;;;;;33.63;20.03;;;8.70;99.90;;;;;;6402430;22;19994;-69
2023/12/25 00:27:30;;;;;;;37.47;21.10;;;8.60;99.90;;;;;;6401863;22;19997;-70
2023/12/25 00:29:56;;;;;;;36.13;20.43;;;8.60;99.90;;;;;;6401384;22;20020;-70
2023/12/25 00:32:22;;;;;;;38.27;21.30;;;8.60;99.90;;;;;;6373568;22;20006;-71
2023/12/25 00:34:48;;;;;;;35.13;20.97;;;8.60;99.90;;;;;;6401370;22;20002;-70
2023/12/25 00:37:15;;;;;;;37.13;20.17;;;8.50;99.90;;;;;;6401924;22;19998;-69
2023/12/25 00:39:41;;;;;;;32.80;17.47;;;8.50;99.90;;;;;;6401832;22;20323;-69
2023/12/25 00:42:07;;;;;;;31.77;18.93;;;8.50;99.90;;;;;;6401856;22;20419;-73
2023/12/25 00:44:32;;;;;;;37.03;17.47;;;8.50;99.90;;;;;;6402733;22;19997;-72
2023/12/25 00:46:58;;;;;;;30.63;17.37;;;8.50;99.90;;;;;;6402578;22;20523;-72
2023/12/25 00:49:24;;;;;;;31.77;16.53;;;8.50;99.90;;;;;;6402804;22;19994;-74
2023/12/25 00:51:50;;;;;;;29.20;16.57;;;8.50;99.90;;;;;;6402726;22;20059;-72
2023/12/25 00:54:16;;;;;;;30.57;17.00;;;8.50;99.90;;;;;;6402438;22;20001;-77
2023/12/25 00:57:13;;;;;;;30.87;14.67;;;8.50;99.90;;;;;;6401957;22;20002;-71
2023/12/25 01:03:11;;;;;;;32.43;15.37;;;8.50;99.90;;;;;;6399062;22;20067;-75
2023/12/25 01:12:26;;;;;;;31.13;14.53;;;8.50;99.90;;;;;;6122477;23;20018;-72
2023/12/25 01:14:52;;;;;;;37.43;15.93;;;8.50;99.90;;;;;;6161321;23;20091;-70
2023/12/25 01:17:39;;;;;;;40.73;18.17;;;8.50;99.90;;;;;;6242372;23;20461;-71
2023/12/25 01:20:06;;;;;;;32.97;17.70;;;8.40;99.90;;;;;;6240744;23;20184;-73
2023/12/25 01:22:32;;;;;;;32.17;16.70;;;8.40;99.90;;;;;;6284929;22;20081;-72
2023/12/25 01:24:58;;;;;;;32.27;16.53;;;8.40;99.90;;;;;;6401893;22;20388;-73
2023/12/25 01:27:24;;;;;;;31.17;15.63;;;8.40;99.90;;;;;;6401404;22;20013;-73
2023/12/25 01:29:50;;;;;;;30.93;14.90;;;8.40;99.90;;;;;;6401893;22;20025;-70
2023/12/25 01:32:16;;;;;;;26.77;14.30;;;8.40;99.90;;;;;;6401772;22;20005;-71
2023/12/25 01:34:42;;;;;;;22.93;13.70;;;8.40;99.90;;;;;;6401776;22;19998;-71
2023/12/25 01:37:07;;;;;;;28.67;13.60;;;8.40;99.90;;;;;;6402060;22;20047;-74
2023/12/25 01:39:33;;;;;;;27.90;13.57;;;8.40;99.90;;;;;;6401201;22;19994;-71
2023/12/25 01:41:59;;;;;;;25.67;12.87;;;8.40;99.90;;;;;;6373170;22;20010;-71
2023/12/25 01:44:25;;;;;;;21.67;12.10;;;8.40;99.90;;;;;;6401634;22;20022;-70
2023/12/25 01:46:51;;;;;;;20.53;12.33;;;8.40;99.90;;;;;;6401642;22;20016;-74
2023/12/25 01:49:16;;;;;;;26.30;12.00;;;8.40;99.90;;;;;;6401675;22;20042;-75
2023/12/25 01:51:42;;;;;;;22.67;11.23;;;8.40;99.90;;;;;;6401636;22;20005;-74
2023/12/25 01:54:08;;;;;;;28.07;13.00;;;8.40;99.90;;;;;;6401278;22;19998;-71
2023/12/25 01:56:34;;;;;;;25.87;12.53;;;8.40;99.90;;;;;;6401761;22;20028;-77
2023/12/25 01:59:02;;;;;;;27.60;12.13;;;8.40;99.90;;;;;;6398229;22;20013;-72
2023/12/25 02:01:28;;;;;;;24.27;12.13;;;8.40;99.90;;;;;;6398302;22;20029;-75
2023/12/25 02:03:54;;;;;;;22.87;12.13;;;8.40;99.90;;;;;;6398495;22;20005;-71
2023/12/25 02:06:20;;;;;;;23.43;11.07;;;8.40;99.90;;;;;;6400987;22;20013;-71
2023/12/25 02:08:46;;;;;;;24.43;10.87;;;8.40;99.90;;;;;;6401351;22;20014;-73
2023/12/25 02:11:12;;;;;;;22.60;11.17;;;8.40;99.90;;;;;;6401083;22;20024;-70
2023/12/25 02:13:38;;;;;;;23.17;11.20;;;8.40;99.90;;;;;;6400910;22;20081;-72
2023/12/25 02:16:04;;;;;;;21.23;10.87;;;8.40;99.90;;;;;;6400880;22;20078;-72
2023/12/25 02:18:30;;;;;;;25.60;11.10;;;8.40;99.90;;;;;;6401565;22;20377;-70
2023/12/25 02:20:56;;;;;;;25.80;11.00;;;8.40;99.90;;;;;;6401091;22;19998;-71
2023/12/25 02:23:25;;;;;;;21.83;10.93;;;8.40;99.90;;;;;;6401177;22;20084;-71
2023/12/25 02:25:59;;;;;;;27.43;10.87;;;8.40;99.90;;;;;;6401664;22;20343;-72
2023/12/25 02:28:25;;;;;;;28.63;11.57;;;8.40;99.90;;;;;;6401968;22;19998;-72
2023/12/25 02:30:54;;;;;;;21.13;10.60;;;8.40;99.90;;;;;;6402389;22;20001;-73
2023/12/25 02:37:10;;;;;;;28.25;11.30;;;8.40;99.90;;;;;;6250183;22;20011;-72
2023/12/25 02:39:42;;;;;;;26.23;11.18;;;8.40;99.90;;;;;;6399851;22;20312;-71
2023/12/25 02:53:06;;;;;;;22.53;10.97;;;8.40;99.90;;;;;;6242396;23;20019;-71
2023/12/25 02:55:39;;;;;;;20.10;9.90;;;8.30;99.90;;;;;;6153638;23;20077;-76
2023/12/25 02:58:07;;;;;;;;;;;8.30;99.90;;;;;;6154422;23;20010;-72
2023/12/25 03:00:37;;;;;;;21.57;10.57;;;8.30;99.90;;;;;;6154594;23;20298;-73
2023/12/25 03:03:03;;;;;;;23.13;10.33;;;8.30;99.90;;;;;;6264674;22;20097;-75
2023/12/25 03:05:28;;;;;;;25.63;10.93;;;8.30;99.90;;;;;;6403552;22;20037;-70
2023/12/25 03:07:54;;;;;;;26.23;11.70;;;8.30;99.90;;;;;;6403348;22;19998;-71
2023/12/25 03:10:20;;;;;;;19.70;10.10;;;8.20;99.90;;;;;;6403154;22;19998;-73
2023/12/25 03:12:46;;;;;;;17.77;9.47;;;8.20;99.90;;;;;;6403208;22;20028;-73
2023/12/25 03:15:12;;;;;;;22.03;10.60;;;8.20;99.90;;;;;;6403366;22;20009;-72
2023/12/25 03:17:37;;;;;;;21.47;10.43;;;8.20;99.90;;;;;;6403412;22;19998;-75
2023/12/25 03:20:05;;;;;;;28.13;10.00;;;8.20;99.90;;;;;;6403176;22;19998;-71
2023/12/25 03:22:31;;;;;;;19.40;10.00;;;8.30;99.90;;;;;;6402920;22;20073;-72
2023/12/25 03:25:01;;;;;;;17.70;9.50;;;8.20;99.90;;;;;;6374641;22;20408;-73
2023/12/25 03:27:26;;;;;;;16.87;9.07;;;8.30;99.90;;;;;;6402979;22;20443;-74
2023/12/25 03:29:52;;;;;;;22.97;9.50;;;8.30;99.90;;;;;;6402502;22;20005;-72
2023/12/25 03:32:19;;;;;;;19.27;9.57;;;8.30;99.90;;;;;;6374594;22;20002;-74
2023/12/25 03:34:49;;;;;;;20.10;9.27;;;8.30;99.90;;;;;;6402825;22;20428;-71
2023/12/25 03:37:15;;;;;;;23.13;9.73;;;8.30;99.90;;;;;;6402955;22;19998;-72
2023/12/25 03:39:41;;;;;;;17.33;8.37;;;8.20;99.90;;;;;;6403130;22;20002;-69
2023/12/25 03:42:07;;;;;;;25.90;9.80;;;8.30;99.90;;;;;;6403036;22;20069;-70
2023/12/25 03:44:33;;;;;;;19.80;8.57;;;8.20;99.90;;;;;;6402541;22;19994;-69
2023/12/25 03:46:58;;;;;;;19.63;9.13;;;8.20;99.90;;;;;;6402862;22;20014;-70
2023/12/25 03:49:24;;;;;;;18.20;8.93;;;8.30;99.90;;;;;;6402775;22;19994;-70
2023/12/25 03:51:50;;;;;;;19.37;8.20;;;8.20;99.90;;;;;;6402749;22;20002;-70
2023/12/25 03:54:16;;;;;;;23.27;9.43;;;8.20;99.90;;;;;;6402990;22;20066;-69
2023/12/25 03:56:42;;;;;;;17.20;9.03;;;8.20;99.90;;;;;;6402646;22;20326;-69
2023/12/25 03:59:09;;;;;;;18.93;9.57;;;8.20;99.90;;;;;;6401514;22;19998;-69
2023/12/25 04:01:38;;;;;;;20.33;9.17;;;8.20;99.90;;;;;;6403225;22;19998;-71
2023/12/25 04:04:05;;;;;;;18.40;9.70;;;8.20;99.90;;;;;;6403053;22;20017;-75
2023/12/25 04:06:31;;;;;;;19.83;9.77;;;8.20;99.90;;;;;;6402943;22;20067;-72
2023/12/25 04:08:57;;;;;;;16.47;9.47;;;8.20;99.90;;;;;;6403040;22;19994;-73
2023/12/25 04:11:24;;;;;;;16.97;8.97;;;8.10;99.90;;;;;;6403594;22;19997;-73
2023/12/25 04:13:54;;;;;;;21.60;9.37;;;8.10;99.90;;;;;;6403147;22;20316;-71
2023/12/25 04:17:09;;;;;;;20.00;9.03;;;8.10;99.90;;;;;;6402618;22;20395;-71
2023/12/25 04:23:26;;;;;;;15.67;8.33;;;8.10;99.90;;;;;;6094660;23;20006;-74
2023/12/25 04:35:33;;;;;;;20.30;9.33;;;8.00;99.90;;;;;;6195294;23;20047;-71
2023/12/25 04:38:15;;;;;;;24.53;12.73;;;8.00;99.90;;;;;;6182848;23;20012;-76
2023/12/25 04:40:41;;;;;;;27.67;14.82;;;8.00;99.90;;;;;;6243302;23;20000;-73
2023/12/25 04:43:07;;;;;;;31.03;15.87;;;8.00;99.90;;;;;;6243150;23;20019;-73
2023/12/25 04:45:33;;;;;;;28.10;14.57;;;8.00;99.90;;;;;;6343467;22;20420;-70
2023/12/25 04:47:59;;;;;;;33.80;16.73;;;8.00;99.90;;;;;;6402001;22;20001;-70
2023/12/25 04:50:25;;;;;;;32.03;17.37;;;8.00;99.90;;;;;;6402298;22;20029;-75
2023/12/25 04:52:50;;;;;;;26.57;16.27;;;8.00;99.90;;;;;;6402071;22;20324;-74
2023/12/25 04:55:16;;;;;;;27.60;17.17;;;8.00;99.90;;;;;;6402065;22;19998;-71
2023/12/25 04:57:42;;;;;;;37.83;18.00;;;8.00;99.90;;;;;;6401867;22;20002;-74
2023/12/25 05:00:08;;;;;;;28.13;14.87;;;8.00;99.90;;;;;;6402110;22;20068;-77
2023/12/25 05:02:34;;;;;;;25.70;15.60;;;8.00;99.90;;;;;;6374144;22;20416;-73
2023/12/25 05:04:59;;;;;;;27.43;15.67;;;8.00;99.90;;;;;;6401979;22;20070;-73
2023/12/25 05:07:25;;;;;;;31.00;17.07;;;8.00;99.90;;;;;;6401622;22;20010;-71
2023/12/25 05:09:51;;;;;;;27.73;16.90;;;8.00;99.90;;;;;;6402283;22;19998;-71
2023/12/25 05:12:17;;;;;;;31.57;16.97;;;8.00;99.90;;;;;;6401703;22;20002;-74
2023/12/25 05:14:42;;;;;;;30.87;16.13;;;7.90;99.90;;;;;;6401918;22;19998;-71
2023/12/25 05:17:08;;;;;;;30.43;16.67;;;8.00;99.90;;;;;;6401756;22;19994;-73
2023/12/25 05:19:34;;;;;;;30.73;16.70;;;8.00;99.90;;;;;;6401647;22;20002;-74
2023/12/25 05:22:02;;;;;;;27.63;15.40;;;8.00;99.90;;;;;;6401828;22;19998;-73
2023/12/25 05:24:27;;;;;;;28.23;15.07;;;8.00;99.90;;;;;;6401584;22;20442;-74
2023/12/25 05:26:53;;;;;;;30.23;16.10;;;7.90;99.90;;;;;;6401295;22;20006;-74
2023/12/25 05:29:19;;;;;;;32.27;16.00;;;7.90;99.90;;;;;;6401558;22;19998;-74
2023/12/25 05:31:45;;;;;;;28.70;17.37;;;7.90;99.90;;;;;;6401108;22;20004;-74
2023/12/25 05:34:11;;;;;;;33.20;16.87;;;7.90;99.90;;;;;;6401954;22;20415;-74
2023/12/25 05:36:37;;;;;;;32.07;16.80;;;7.90;99.90;;;;;;6401492;22;20081;-73
2023/12/25 05:39:03;;;;;;;30.17;16.17;;;7.90;99.90;;;;;;6401378;22;19994;-72
2023/12/25 05:41:29;;;;;;;31.60;16.70;;;7.90;99.90;;;;;;6401636;22;20432;-72
2023/12/25 05:43:55;;;;;;;28.17;16.13;;;8.00;99.90;;;;;;6401674;22;20025;-73
2023/12/25 05:46:21;;;;;;;32.33;16.23;;;7.90;99.90;;;;;;6402013;22;20481;-74
2023/12/25 05:48:47;;;;;;;30.07;16.00;;;8.00;99.90;;;;;;6401986;22;20002;-70
2023/12/25 05:51:13;;;;;;;30.43;16.07;;;8.00;99.90;;;;;;6402006;22;20036;-72
2023/12/25 05:54:06;;;;;;;30.10;15.17;;;8.00;99.90;;;;;;6402239;22;20005;-73
2023/12/25 06:07:40;;;;;;;28.97;15.10;;;8.00;99.90;;;;;;6332284;22;20365;-74
2023/12/25 06:13:40;;;;;;;;;;;8.00;99.90;;;;;;6336345;22;20010;-74
2023/12/25 06:19:53;;;;;;;32.90;17.90;;;8.00;99.90;;;;;;6144752;23;20483;-74
2023/12/25 06:22:19;;;;;;;34.73;16.93;;;8.00;99.90;;;;;;6214753;23;20011;-71
2023/12/25 06:24:45;;;;;;;28.37;16.97;;;8.00;99.90;;;;;;6342389;22;20026;-71
2023/12/25 06:27:11;;;;;;;27.80;16.07;;;8.00;99.90;;;;;;6372949;22;20058;-70
2023/12/25 06:29:36;;;;;;;26.63;16.47;;;8.00;99.90;;;;;;6403528;22;20023;-73
2023/12/25 06:32:03;;;;;;;28.87;16.47;;;8.00;99.90;;;;;;6374930;22;20033;-72
2023/12/25 06:34:28;;;;;;;24.60;14.97;;;8.00;99.90;;;;;;6403250;22;20006;-70
2023/12/25 06:36:54;;;;;;;25.80;15.47;;;8.00;99.90;;;;;;6403442;22;20364;-71
2023/12/25 06:39:20;;;;;;;32.80;16.33;;;8.00;99.90;;;;;;6403375;22;20066;-73
2023/12/25 06:41:45;;;;;;;23.97;15.17;;;7.90;99.90;;;;;;6403153;22;20008;-72
2023/12/25 06:44:11;;;;;;;25.07;14.73;;;8.00;99.90;;;;;;6402973;22;20000;-71
2023/12/25 06:46:37;;;;;;;25.80;14.67;;;7.90;99.90;;;;;;6403490;22;20059;-71
2023/12/25 06:49:03;;;;;;;37.33;16.83;;;8.00;99.90;;;;;;6403551;22;20496;-73
2023/12/25 06:51:29;;;;;;;31.57;16.03;;;8.00;99.90;;;;;;6402802;22;20499;-71
2023/12/25 06:53:54;;;;;;;25.73;15.37;;;8.00;99.90;;;;;;6403227;22;20002;-71
2023/12/25 06:56:21;;;;;;;30.20;15.97;;;8.00;99.90;;;;;;6375146;22;19998;-72
2023/12/25 06:58:46;;;;;;;28.53;15.40;;;8.00;99.90;;;;;;6403338;22;20436;-72
2023/12/25 07:01:12;;;;;;;31.03;14.97;;;8.00;99.90;;;;;;6403465;22;20029;-70
2023/12/25 07:03:39;;;;;;;30.00;15.87;;;8.00;99.90;;;;;;6374938;22;20096;-70
2023/12/25 07:06:08;;;;;;;26.10;14.07;;;8.10;99.90;;;;;;6402064;22;20006;-70
2023/12/25 07:08:34;;;;;;;23.03;12.87;;;8.10;99.90;;;;;;6402724;22;20027;-69
2023/12/25 07:10:59;;;;;;;28.03;13.17;;;8.10;99.90;;;;;;6388758;22;20033;-71
2023/12/25 07:13:25;;;;;;;28.23;12.70;;;8.10;99.90;;;;;;6402921;22;19998;-69
2023/12/25 07:15:51;;;;;;;23.53;11.67;;;8.20;99.90;;;;;;6403015;22;20032;-69
2023/12/25 07:18:17;;;;;;;23.30;12.00;;;8.20;99.90;;;;;;6402604;22;20020;-69
2023/12/25 07:20:43;;;;;;;24.03;12.20;;;8.20;99.90;;;;;;6402909;22;20002;-70
2023/12/25 07:23:10;;;;;;;26.27;12.27;;;8.20;99.90;;;;;;6403406;22;20005;-71
2023/12/25 07:25:36;;;;;;;29.53;13.03;;;8.30;99.90;;;;;;6403038;22;20324;-71
2023/12/25 07:28:03;;;;;;;28.70;13.00;;;8.30;99.90;;;;;;6403668;22;19998;-70
2023/12/25 07:30:29;;;;;;;26.90;12.60;;;8.30;99.90;;;;;;6403416;22;20335;-69
2023/12/25 07:39:12;;;;;;;25.03;11.13;;;8.40;99.90;;;;;;6402901;22;20383;-69
2023/12/25 07:56:39;;;;;;;;;;;;;;;;;;;;;
2023/12/25 08:00:16;;;;;;;24.37;15.50;;;8.50;99.90;;;;;;6243366;23;20115;-70
2023/12/25 08:02:35;;;;;;;24.03;15.20;;;8.50;99.90;;;;;;6294236;22;20002;-70
2023/12/25 08:05:02;;;;;;;29.77;15.87;;;8.50;99.90;;;;;;6388663;22;20059;-70
2023/12/25 08:07:28;;;;;;;29.67;15.97;;;8.50;99.90;;;;;;6401844;22;20013;-70
2023/12/25 08:09:54;;;;;;;29.97;16.53;;;8.50;99.90;;;;;;6402203;22;20030;-70
2023/12/25 08:12:20;;;;;;;30.60;15.30;;;8.50;99.90;;;;;;6402099;22;20081;-69
2023/12/25 08:14:46;;;;;;;29.17;16.00;;;8.60;99.90;;;;;;6401924;22;19994;-70
2023/12/25 08:17:12;;;;;;;28.97;15.77;;;8.60;99.90;;;;;;6401800;22;20483;-70
2023/12/25 08:19:37;;;;;;;28.83;17.20;;;8.60;99.90;;;;;;6401973;22;19998;-70
2023/12/25 08:22:03;;;;;;;31.80;17.33;;;8.60;99.90;;;;;;6401687;22;20077;-69
2023/12/25 08:24:29;;;;;;;37.73;17.63;;;8.60;99.90;;;;;;6401543;22;20106;-71
2023/12/25 08:26:55;;;;;;;31.93;17.03;;;8.60;99.90;;;;;;6401302;22;20055;-70
2023/12/25 08:29:21;;;;;;;33.83;17.10;;;8.60;99.90;;;;;;6401738;22;20066;-72
2023/12/25 08:31:46;;;;;;;27.67;16.03;;;8.60;99.90;;;;;;6401754;22;20002;-72
2023/12/25 08:34:12;;;;;;;28.57;16.17;;;8.70;99.90;;;;;;6402113;22;20005;-74
2023/12/25 08:36:38;;;;;;;28.50;15.60;;;8.70;99.90;;;;;;6402075;22;20002;-72
2023/12/25 08:39:04;;;;;;;25.63;14.63;;;8.70;99.90;;;;;;6401339;22;19998;-69
2023/12/25 08:41:30;;;;;;;30.50;15.47;;;8.70;99.90;;;;;;6401857;22;20004;-70
2023/12/25 08:43:56;;;;;;;26.77;13.97;;;8.80;99.90;;;;;;6401984;22;20423;-71
2023/12/25 08:46:22;;;;;;;27.13;14.50;;;8.70;99.90;;;;;;6401785;22;20081;-70
2023/12/25 08:48:48;;;;;;;26.63;14.17;;;8.80;99.90;;;;;;6402095;22;20025;-74
2023/12/25 08:51:14;;;;;;;28.63;15.20;;;8.80;99.90;;;;;;6401800;22;20002;-71
2023/12/25 08:53:41;;;;;;;26.00;14.83;;;8.80;99.90;;;;;;6373492;22;20006;-71
2023/12/25 08:56:07;;;;;;;25.40;13.27;;;8.80;99.90;;;;;;6400199;22;20420;-71
2023/12/25 08:58:33;;;;;;;29.50;15.37;;;8.80;99.90;;;;;;6401819;22;20026;-69
2023/12/25 09:00:59;;;;;;;26.30;13.93;;;8.90;99.90;;;;;;6401163;22;19998;-73
2023/12/25 09:03:25;;;;;;;29.53;14.33;;;8.90;99.90;;;;;;6400726;22;20084;-70
2023/12/25 09:05:50;;;;;;;32.77;14.10;;;8.90;99.90;;;;;;6401165;22;20006;-70
2023/12/25 09:08:17;;;;;;;27.73;14.87;;;9.00;99.90;;;;;;6402292;22;20021;-73
2023/12/25 09:11:04;;;;;;;30.07;14.97;;;9.00;99.90;;;;;;6402099;22;20072;-70
2023/12/25 09:18:02;;;;;;;30.33;14.33;;;9.00;99.90;;;;;;6304712;22;20007;-70
2023/12/25 09:20:58;;;;;;;72.78;16.52;;;9.10;99.90;;;;;;6159272;22;20031;-70
2023/12/25 09:24:23;;;;;;;;;;;;;;;;;;;;;
2023/12/25 09:29:36;;;;;;;26.87;14.47;;;9.20;99.90;;;;;;6324172;22;20332;-70
2023/12/25 09:36:35;;;;;;;34.80;16.47;;;9.30;99.90;;;;;;6151228;23;20024;-76
2023/12/25 09:45:57;;;;;;;29.87;15.63;;;9.40;99.90;;;;;;6035151;23;20016;-75
2023/12/25 09:52:22;;;;;;;33.00;17.37;;;9.50;99.90;;;;;;5965928;23;20467;-75
2023/12/25 09:54:48;;;;;;;43.17;18.63;;;9.50;99.90;;;;;;6106107;23;20024;-75
2023/12/25 09:57:16;;;;;;;32.13;17.50;;;9.50;99.90;;;;;;6286765;22;20298;-71
2023/12/25 09:59:43;;;;;;;36.90;18.57;;;9.60;99.90;;;;;;6332544;22;20002;-72
2023/12/25 10:02:10;;;;;;;36.73;19.67;;;9.60;99.90;;;;;;6370101;22;20002;-72
2023/12/25 10:04:39;;;;;;;32.22;18.77;;;9.60;99.90;;;;;;6372032;22;20297;-69
2023/12/25 10:07:05;;;;;;;33.33;19.63;;;9.60;99.90;;;;;;6371588;22;20355;-73
2023/12/25 10:09:31;;;;;;;37.17;18.88;;;9.70;99.90;;;;;;6371714;22;20001;-70
2023/12/25 10:11:56;;;;;;;35.17;18.13;;;9.70;99.90;;;;;;6371981;22;20002;-70
2023/12/25 10:14:22;;;;;;;37.83;19.00;;;9.80;99.90;;;;;;6371615;22;20435;-69
2023/12/25 10:16:49;;;;;;;46.92;20.38;;;9.80;99.90;;;;;;6371059;22;20002;-70
2023/12/25 10:19:15;;;;;;;36.23;18.03;;;9.80;99.90;;;;;;6343251;22;20332;-73
2023/12/25 10:21:45;;;;;;;40.10;18.13;;;9.80;99.90;;;;;;6371131;22;19999;-73
2023/12/25 10:24:15;;;;;;;33.93;16.97;;;9.90;99.90;;;;;;6370659;22;20005;-72
2023/12/25 10:26:45;;;;;;;39.23;17.70;;;9.90;99.90;;;;;;6370851;22;20017;-73
2023/12/25 10:29:11;;;;;;;35.90;18.75;;;9.90;99.90;;;;;;6382926;22;20033;-73
2023/12/25 10:31:45;;;;;;;44.60;20.20;;;9.90;99.90;;;;;;6403235;22;20002;-69
2023/12/25 10:34:11;;;;;;;38.97;20.23;;;9.90;99.90;;;;;;6403156;22;20316;-70
2023/12/25 10:36:38;;;;;;;38.05;21.30;;;9.90;99.90;;;;;;6402874;22;20004;-69
2023/12/25 10:39:04;;;;;;;35.28;20.20;;;9.90;99.90;;;;;;6403236;22;20072;-69
2023/12/25 10:41:34;;;;;;;41.63;20.67;;;10.00;99.90;;;;;;6403171;22;20029;-69
2023/12/25 10:44:02;;;;;;;39.38;21.70;;;10.00;99.90;;;;;;6403007;22;19994;-69
2023/12/25 10:46:36;;;;;;;45.08;24.13;;;10.00;99.90;;;;;;6403549;22;20048;-69
2023/12/25 10:49:04;;;;;;;40.13;22.48;;;10.00;99.90;;;;;;6402928;22;20004;-68
2023/12/25 10:51:35;;;;;;;53.90;24.97;;;10.00;99.90;;;;;;6403309;22;20323;-71
2023/12/25 10:54:05;;;;;;;41.20;21.43;;;10.00;99.90;;;;;;6372782;22;20002;-73
2023/12/25 10:56:35;;;;;;;55.60;30.33;;;10.10;99.90;;;;;;6400194;22;20006;-70
2023/12/25 10:59:24;;;;;;;60.78;34.53;;;10.10;99.90;;;;;;6402342;22;19998;-73
2023/12/25 11:01:52;;;;;;;67.85;38.25;;;10.10;99.90;;;;;;6403733;22;20376;-72
2023/12/25 11:21:29;;;;;;;65.97;39.95;;;10.30;99.90;;;;;;6240530;23;20051;-77
2023/12/25 11:25:00;;;;;;;69.20;39.38;;;10.30;99.90;;;;;;6241192;22;20012;-76
2023/12/25 11:28:09;;;;;;;70.32;40.15;;;10.30;99.90;;;;;;6009377;23;20091;-75
2023/12/25 11:30:37;;;;;;;65.05;38.83;;;10.40;99.90;;;;;;6039649;23;20026;-74
2023/12/25 11:33:04;;;;;;;68.85;39.90;;;10.40;99.90;;;;;;6306498;22;20381;-73
2023/12/25 11:35:33;;;;;;;66.18;39.30;;;10.40;99.90;;;;;;6343013;22;20326;-72
2023/12/25 11:38:21;;;;;;;66.78;38.92;;;10.50;99.90;;;;;;6342863;22;20363;-74
2023/12/25 11:40:50;;;;;;;67.70;41.47;;;10.50;99.90;;;;;;6370393;22;20002;-76
2023/12/25 11:43:18;;;;;;;70.13;40.70;;;10.50;99.90;;;;;;6370759;22;20006;-72
2023/12/25 11:45:50;;;;;;;58.75;36.85;;;10.50;99.90;;;;;;6370753;22;19998;-73
2023/12/25 11:48:16;;;;;;;60.45;36.50;;;10.60;99.90;;;;;;6370764;22;20011;-70
2023/12/25 11:50:43;;;;;;;61.10;38.13;;;10.60;99.90;;;;;;6370464;22;20002;-75
2023/12/25 11:53:09;;;;;;;61.30;38.65;;;10.60;99.90;;;;;;6371056;22;20010;-78
2023/12/25 11:55:36;;;;;;;63.58;39.58;;;10.60;99.90;;;;;;6370512;22;20353;-77
2023/12/25 11:58:02;;;;;;;59.17;40.35;;;10.60;99.90;;;;;;6370910;22;20080;-76
2023/12/25 12:00:31;;;;;;;63.88;40.50;;;10.60;99.90;;;;;;6370575;22;19999;-78
2023/12/25 12:02:58;;;;;;;62.15;40.08;;;10.60;99.90;;;;;;6370428;22;20343;-77
2023/12/25 12:05:24;;;;;;;64.95;41.90;;;10.60;99.90;;;;;;6370603;22;19999;-76
2023/12/25 12:07:50;;;;;;;67.43;41.50;;;10.60;99.90;;;;;;6370772;22;20502;-77
2023/12/25 12:10:16;;;;;;;67.65;41.38;;;10.60;99.90;;;;;;6370491;22;19994;-77
2023/12/25 12:12:42;;;;;;;66.70;42.00;;;10.60;99.90;;;;;;6370496;22;20066;-76
2023/12/25 12:15:10;;;;;;;71.60;43.22;;;10.60;99.90;;;;;;6370643;22;20077;-77
2023/12/25 12:17:36;;;;;;;73.32;44.25;;;10.60;99.90;;;;;;6369835;22;20002;-77
2023/12/25 12:20:03;;;;;;;82.55;46.22;;;10.60;99.90;;;;;;6370693;22;20036;-78
2023/12/25 12:22:29;;;;;;;72.38;45.58;;;10.60;99.90;;;;;;6370570;22;20050;-78
2023/12/25 12:25:14;;;;;;;81.07;49.13;;;10.60;99.90;;;;;;6370623;22;20013;-78
2023/12/25 12:27:40;;;;;;;76.07;47.78;;;10.60;99.90;;;;;;6342364;22;20443;-75
2023/12/25 12:30:07;;;;;;;74.20;45.95;;;10.60;99.90;;;;;;6370719;22;20014;-74
2023/12/25 12:32:34;;;;;;;72.55;45.40;;;10.60;99.90;;;;;;6370863;22;19998;-78
2023/12/25 12:35:01;;;;;;;80.88;47.60;;;10.60;99.90;;;;;;6371226;22;20010;-77
2023/12/25 12:37:28;;;;;;;71.07;47.13;;;10.60;99.90;;;;;;6343484;22;20033;-77
2023/12/25 12:40:27;;;;;;;76.45;48.13;;;10.60;99.90;;;;;;6370541;22;20047;-77
2023/12/25 12:44:03;;;;;;;73.80;47.65;;;10.70;99.90;;;;;;6273476;22;20318;-75
2023/12/25 12:47:29;;;;;;;73.47;46.28;;;10.70;99.90;;;;;;6106967;23;20480;-78
2023/12/25 12:54:18;;;;;;;72.35;46.72;;;10.60;99.90;;;;;;6008562;23;20526;-77
2023/12/25 12:57:55;;;;;;;76.35;46.83;;;10.60;99.90;;;;;;5980126;24;20408;-77
2023/12/25 13:00:35;;;;;;;69.32;44.92;;;10.60;99.90;;;;;;5968305;23;20059;-76
2023/12/25 13:10:14;;;;;;;72.00;42.75;;;10.60;99.90;;;;;;6008061;23;20008;-78
2023/12/25 13:12:40;;;;;;;72.15;44.65;;;10.70;99.90;;;;;;5967017;23;20091;-73
2023/12/25 13:15:06;;;;;;;65.85;43.38;;;10.70;99.90;;;;;;6216739;22;20056;-78
2023/12/25 13:17:32;;;;;;;70.80;42.95;;;10.80;99.90;;;;;;6369887;22;20002;-76
2023/12/25 13:19:58;;;;;;;65.28;41.95;;;10.80;99.90;;;;;;6369837;22;20055;-77
2023/12/25 13:22:24;;;;;;;64.97;42.13;;;10.80;99.90;;;;;;6342039;22;20005;-78
2023/12/25 13:24:50;;;;;;;65.15;41.90;;;10.90;99.90;;;;;;6370077;22;20362;-76
2023/12/25 13:27:16;;;;;;;64.13;42.53;;;10.90;99.90;;;;;;6369662;22;20014;-76
2023/12/25 13:29:41;;;;;;;63.83;43.03;;;10.90;99.90;;;;;;6354576;22;20014;-77
2023/12/25 13:32:07;;;;;;;65.57;42.67;;;10.90;99.90;;;;;;6369316;22;20005;-76
2023/12/25 13:34:33;;;;;;;58.95;40.03;;;10.90;99.90;;;;;;6369364;22;20014;-77
2023/12/25 13:36:59;;;;;;;69.90;43.08;;;10.90;99.90;;;;;;6369515;22;20065;-77
2023/12/25 13:39:24;;;;;;;63.53;42.85;;;10.90;99.90;;;;;;6369098;22;19999;-78
2023/12/25 13:41:50;;;;;;;65.55;41.47;;;10.90;99.90;;;;;;6369284;22;20013;-78
2023/12/25 13:44:16;;;;;;;64.20;41.85;;;11.00;99.90;;;;;;6369994;22;20103;-72
2023/12/25 13:46:42;;;;;;;67.18;42.88;;;11.00;99.90;;;;;;6370261;22;20015;-71
2023/12/25 13:49:08;;;;;;;67.75;40.92;;;11.00;99.90;;;;;;6369153;22;19998;-71
2023/12/25 13:51:34;;;;;;;64.45;42.28;;;10.90;99.90;;;;;;6369651;22;20115;-70
2023/12/25 13:54:00;;;;;;;61.20;40.63;;;11.00;99.90;;;;;;6369563;22;20010;-71
2023/12/25 13:56:27;;;;;;;63.08;40.55;;;11.00;99.90;;;;;;6369194;22;20025;-72
2023/12/25 13:58:53;;;;;;;61.95;40.13;;;11.00;99.90;;;;;;6369539;22;19998;-71
2023/12/25 14:01:19;;;;;;;64.97;41.88;;;11.00;99.90;;;;;;6369544;22;19999;-71
2023/12/25 14:03:46;;;;;;;64.18;41.25;;;11.00;99.90;;;;;;6337545;22;20022;-78
2023/12/25 14:06:12;;;;;;;67.15;42.72;;;11.00;99.90;;;;;;6338330;22;20003;-79
2023/12/25 14:08:38;;;;;;;63.97;40.00;;;11.00;99.90;;;;;;6339033;22;20006;-76
2023/12/25 14:11:07;;;;;;;65.72;40.58;;;11.00;99.90;;;;;;6338647;22;20026;-76
2023/12/25 14:14:23;;;;;;;66.50;42.72;;;11.00;99.90;;;;;;6338477;22;19994;-78
2023/12/25 14:17:12;;;;;;;68.70;44.13;;;11.00;99.90;;;;;;6338636;22;19998;-78
2023/12/25 14:20:20;;;;;;;62.42;40.20;;;11.00;99.90;;;;;;6338099;22;20007;-78
2023/12/25 14:26:39;;;;;;;62.80;41.28;;;11.00;99.90;;;;;;6242826;23;20481;-78
2023/12/25 14:29:36;;;;;;;60.47;39.88;;;11.00;99.90;;;;;;6161254;23;20440;-75
2023/12/25 14:36:32;;;;;;;68.07;43.10;;;11.00;99.90;;;;;;6137788;23;20014;-75
2023/12/25 14:39:04;;;;;;;66.57;44.13;;;11.00;99.90;;;;;;6036367;23;20004;-77
2023/12/25 14:41:30;;;;;;;78.68;46.10;;;11.00;99.90;;;;;;6259908;22;20008;-77
2023/12/25 14:43:56;;;;;;;72.20;46.03;;;11.00;99.90;;;;;;6272802;22;20573;-75
2023/12/25 14:46:22;;;;;;;68.75;44.88;;;11.00;99.90;;;;;;6302559;22;20011;-76
2023/12/25 14:48:48;;;;;;;68.22;42.92;;;11.00;99.90;;;;;;6337899;22;20274;-76
2023/12/25 14:51:14;;;;;;;65.72;44.28;;;11.00;99.90;;;;;;6339002;22;19999;-76
2023/12/25 14:53:41;;;;;;;70.78;46.88;;;11.00;99.90;;;;;;6339403;22;20310;-76
2023/12/25 14:56:07;;;;;;;71.55;46.40;;;11.00;99.90;;;;;;6311232;22;20339;-77
2023/12/25 14:58:32;;;;;;;69.68;47.22;;;11.00;99.90;;;;;;6339629;22;20018;-77
2023/12/25 15:00:58;;;;;;;72.28;46.40;;;11.00;99.90;;;;;;6339806;22;20024;-74
2023/12/25 15:03:24;;;;;;;70.85;46.65;;;10.90;99.90;;;;;;6339358;22;20037;-72
2023/12/25 15:05:50;;;;;;;74.90;46.10;;;11.00;99.90;;;;;;6339519;22;20093;-73